Time;durP1;ratioP1;P1;durP2;ratioP2;P2;SDS_P1;SDS_P2;PMS_P1;PMS_P2;Temp;Humidity;BMP_temperature;BMP_pressure;BME280_temperature;BME280_humidity;BME280_pressure;Samples;Min_cycle;Max_cycle;Signal;HPM_P1;HPM_P2
2023/09/27 00:00:32;;;;;;;;;;;20.20;74.90;;;;;;5093310;28;19955;-55
2023/09/27 00:03:01;;;;;;;;;;;20.20;75.00;;;;;;5093356;28;19915;-54
2023/09/27 00:05:27;;;;;;;;;;;20.20;75.10;;;;;;5109130;28;19908;-54
2023/09/27 00:07:52;;;;;;;;;;;20.20;75.10;;;;;;5093387;28;20310;-54
2023/09/27 00:10:17;;;;;;;;;;;20.20;74.90;;;;;;5093281;28;19957;-54
2023/09/27 00:12:43;;;;;;;;;;;20.20;75.10;;;;;;5093336;28;19953;-55
2023/09/27 00:15:10;;;;;;;;;;;20.20;75.10;;;;;;5093095;28;19919;-55
2023/09/27 00:17:35;;;;;;;;;;;20.20;75.00;;;;;;5093249;28;19915;-54
2023/09/27 00:20:01;;;;;;;;;;;20.20;75.00;;;;;;5093243;28;20417;-55
2023/09/27 00:22:27;;;;;;;;;;;20.20;75.20;;;;;;5093092;28;19916;-54
2023/09/27 00:24:52;;;;;;;;;;;20.20;74.90;;;;;;5098357;28;20067;-55
2023/09/27 00:27:18;;;;;;;;;;;20.20;75.30;;;;;;5095024;28;19929;-54
2023/09/27 00:29:43;;;;;;;;;;;20.20;75.10;;;;;;5094273;28;19911;-55
2023/09/27 00:32:11;;;;;;;;;;;20.20;75.30;;;;;;5113372;28;19999;-55
2023/09/27 00:34:36;;;;;;;;;;;20.20;75.20;;;;;;5094952;28;19912;-55
2023/09/27 00:37:02;;;;;;;;;;;20.20;75.10;;;;;;5113249;28;19912;-54
2023/09/27 00:39:27;;;;;;;;;;;20.20;75.00;;;;;;5113368;28;19908;-55
2023/09/27 00:41:54;;;;;;;;;;;20.20;75.20;;;;;;5113276;28;20363;-55
2023/09/27 00:44:19;;;;;;;;;;;20.20;75.20;;;;;;5094975;28;19913;-55
2023/09/27 00:46:45;;;;;;;;;;;20.20;75.10;;;;;;5113492;28;19914;-55
2023/09/27 00:49:10;;;;;;;;;;;20.20;75.30;;;;;;5113139;28;19962;-55
2023/09/27 00:51:36;;;;;;;;;;;20.20;75.10;;;;;;5113117;28;19920;-55
2023/09/27 00:54:01;;;;;;;;;;;20.20;75.10;;;;;;5113102;28;19915;-55
2023/09/27 00:56:27;;;;;;;;;;;20.10;75.30;;;;;;5113154;28;20356;-55
2023/09/27 00:58:52;;;;;;;;;;;20.20;75.60;;;;;;5113335;28;19907;-55
2023/09/27 01:01:18;;;;;;;;;;;20.10;75.10;;;;;;5113102;28;19915;-55
2023/09/27 01:03:43;;;;;;;;;;;20.10;75.10;;;;;;5113012;28;19976;-55
2023/09/27 01:06:09;;;;;;;;;;;20.10;75.30;;;;;;5113097;28;20375;-55
2023/09/27 01:08:34;;;;;;;;;;;20.10;74.80;;;;;;5094745;28;19915;-55
2023/09/27 01:11:00;;;;;;;;;;;20.10;75.00;;;;;;5094613;28;19959;-55
2023/09/27 01:13:25;;;;;;;;;;;20.10;75.10;;;;;;5094728;28;19907;-55
2023/09/27 01:15:51;;;;;;;;;;;20.10;75.20;;;;;;5112946;28;20011;-54
2023/09/27 01:18:16;;;;;;;;;;;20.10;75.00;;;;;;5113085;28;19907;-55
2023/09/27 01:20:42;;;;;;;;;;;20.10;75.10;;;;;;5094896;28;19912;-55
2023/09/27 01:23:07;;;;;;;;;;;20.10;75.10;;;;;;5094624;28;19908;-55
2023/09/27 01:25:33;;;;;;;;;;;20.10;75.30;;;;;;5112888;28;19960;-55
2023/09/27 01:27:59;;;;;;;;;;;20.00;75.30;;;;;;5112969;28;19915;-53
2023/09/27 01:30:25;;;;;;;;;;;20.10;75.40;;;;;;5112767;28;19930;-55
2023/09/27 01:32:51;;;;;;;;;;;20.10;75.80;;;;;;5094746;28;20360;-55
2023/09/27 01:35:16;;;;;;;;;;;20.00;75.50;;;;;;5112654;28;19912;-55
2023/09/27 01:37:42;;;;;;;;;;;20.00;75.40;;;;;;5112884;28;19912;-54
2023/09/27 01:40:10;;;;;;;;;;;20.00;75.30;;;;;;5112786;28;20279;-54
2023/09/27 01:42:42;;;;;;;;;;;20.00;75.20;;;;;;5116325;28;19908;-55
2023/09/27 01:45:09;;;;;;;;;;;20.10;75.50;;;;;;5123275;28;19908;-56
2023/09/27 01:47:34;;;;;;;;;;;20.00;75.00;;;;;;5098049;28;19955;-54
2023/09/27 01:50:01;;;;;;;;;;;20.00;75.30;;;;;;5116381;28;20292;-55
2023/09/27 01:52:26;;;;;;;;;;;20.00;75.40;;;;;;5098292;28;19989;-55
2023/09/27 01:54:52;;;;;;;;;;;20.00;76.30;;;;;;5111764;28;19953;-55
2023/09/27 01:57:17;;;;;;;;;;;20.00;75.20;;;;;;5095778;28;19908;-55
2023/09/27 01:59:43;;;;;;;;;;;20.00;75.50;;;;;;5095757;28;19908;-54
2023/09/27 02:02:08;;;;;;;;;;;20.00;75.60;;;;;;5095710;28;19943;-55
2023/09/27 02:04:34;;;;;;;;;;;20.00;75.70;;;;;;5095613;28;20367;-55
2023/09/27 02:06:59;;;;;;;;;;;20.00;75.40;;;;;;5095686;28;20367;-55
2023/09/27 02:09:25;;;;;;;;;;;20.00;75.10;;;;;;5077544;28;20504;-54
2023/09/27 02:11:50;;;;;;;;;;;20.00;75.10;;;;;;5095501;28;20363;-55
2023/09/27 02:14:15;;;;;;;;;;;20.00;75.10;;;;;;5095422;28;20256;-55
2023/09/27 02:16:43;;;;;;;;;;;20.00;75.00;;;;;;5095409;28;20275;-54
2023/09/27 02:19:09;;;;;;;;;;;20.00;74.90;;;;;;5095468;28;19908;-55
2023/09/27 02:21:34;;;;;;;;;;;20.00;74.90;;;;;;5095319;28;19908;-55
2023/09/27 02:23:59;;;;;;;;;;;20.00;75.90;;;;;;5095356;28;19955;-55
2023/09/27 02:26:25;;;;;;;;;;;19.90;74.90;;;;;;5110910;28;19908;-54
2023/09/27 02:28:50;;;;;;;;;;;20.00;75.00;;;;;;5095408;28;19908;-55
2023/09/27 02:31:17;;;;;;;;;;;20.00;75.30;;;;;;5095093;28;19919;-55
2023/09/27 02:33:42;;;;;;;;;;;19.90;74.90;;;;;;5095131;28;19935;-55
2023/09/27 02:36:08;;;;;;;;;;;20.00;75.30;;;;;;5095005;28;19912;-55
2023/09/27 02:38:36;;;;;;;;;;;19.90;74.90;;;;;;5094986;28;19919;-54
2023/09/27 02:41:02;;;;;;;;;;;19.90;75.00;;;;;;5076897;28;20002;-57
2023/09/27 02:43:28;;;;;;;;;;;19.90;74.80;;;;;;5076836;28;19943;-55
2023/09/27 02:45:53;;;;;;;;;;;20.00;74.90;;;;;;5094773;28;20008;-54
2023/09/27 02:48:18;;;;;;;;;;;19.90;75.10;;;;;;5076726;28;19908;-55
2023/09/27 02:50:53;;;;;;;;;;;19.90;75.40;;;;;;5094594;28;19930;-54
2023/09/27 02:53:18;;;;;;;;;;;19.90;75.50;;;;;;5093967;28;19904;-55
2023/09/27 02:55:44;;;;;;;;;;;19.90;75.20;;;;;;5095289;28;19916;-55
2023/09/27 02:58:09;;;;;;;;;;;19.90;75.30;;;;;;5094641;28;19915;-55
2023/09/27 03:00:36;;;;;;;;;;;19.90;75.20;;;;;;5110228;28;19908;-55
2023/09/27 03:03:03;;;;;;;;;;;19.90;75.10;;;;;;5094590;28;19947;-55
2023/09/27 03:05:28;;;;;;;;;;;19.90;75.00;;;;;;5094475;28;19968;-55
2023/09/27 03:07:55;;;;;;;;;;;19.90;75.00;;;;;;5094429;28;19954;-55
2023/09/27 03:10:20;;;;;;;;;;;19.90;75.10;;;;;;5059856;28;19915;-55
2023/09/27 03:12:47;;;;;;;;;;;19.90;75.10;;;;;;5094397;28;19908;-54
2023/09/27 03:15:13;;;;;;;;;;;19.90;75.00;;;;;;5094142;28;19916;-54
2023/09/27 03:17:39;;;;;;;;;;;19.90;75.00;;;;;;5094217;28;19909;-55
2023/09/27 03:20:07;;;;;;;;;;;19.90;75.00;;;;;;5094108;28;19908;-55
2023/09/27 03:22:32;;;;;;;;;;;19.90;75.00;;;;;;5094020;28;20296;-54
2023/09/27 03:24:58;;;;;;;;;;;19.90;75.00;;;;;;5094645;28;20021;-54
2023/09/27 03:27:24;;;;;;;;;;;19.90;75.00;;;;;;5094088;28;20488;-55
2023/09/27 03:29:50;;;;;;;;;;;19.90;75.00;;;;;;5109745;28;19908;-55
2023/09/27 03:32:15;;;;;;;;;;;19.90;74.90;;;;;;5093928;28;19954;-55
2023/09/27 03:34:41;;;;;;;;;;;19.90;74.80;;;;;;5093799;28;19966;-54
2023/09/27 03:37:06;;;;;;;;;;;19.90;75.00;;;;;;5093966;28;20317;-55
2023/09/27 03:39:35;;;;;;;;;;;19.90;74.90;;;;;;5075560;28;20331;-54
2023/09/27 03:42:04;;;;;;;;;;;19.90;74.90;;;;;;5093666;28;19915;-54
2023/09/27 03:44:29;;;;;;;;;;;19.90;74.80;;;;;;5093700;28;19919;-54
2023/09/27 03:46:55;;;;;;;;;;;19.90;74.90;;;;;;5093543;28;20269;-55
2023/09/27 03:49:21;;;;;;;;;;;19.90;74.80;;;;;;5109128;28;19916;-55
2023/09/27 03:51:46;;;;;;;;;;;19.90;74.80;;;;;;5075431;28;20379;-54
2023/09/27 03:54:12;;;;;;;;;;;19.90;75.00;;;;;;5093355;28;19912;-55
2023/09/27 03:56:37;;;;;;;;;;;19.90;74.80;;;;;;5093988;28;19956;-55
2023/09/27 03:59:02;;;;;;;;;;;19.90;74.80;;;;;;5093375;28;19908;-55
2023/09/27 04:01:28;;;;;;;;;;;19.90;74.80;;;;;;5093477;28;19908;-53
2023/09/27 04:03:54;;;;;;;;;;;19.80;74.80;;;;;;5093371;28;20242;-55
2023/09/27 04:06:19;;;;;;;;;;;19.80;74.80;;;;;;5093275;28;20007;-55
2023/09/27 04:08:45;;;;;;;;;;;19.80;74.70;;;;;;5093209;28;19908;-55
2023/09/27 04:11:10;;;;;;;;;;;19.80;74.80;;;;;;5093445;28;19995;-55
2023/09/27 04:13:36;;;;;;;;;;;19.80;74.50;;;;;;5093170;28;19951;-55
2023/09/27 04:16:01;;;;;;;;;;;19.80;74.60;;;;;;5108704;28;19916;-55
2023/09/27 04:18:27;;;;;;;;;;;19.80;74.60;;;;;;5093161;28;19930;-55
2023/09/27 04:20:53;;;;;;;;;;;19.80;74.50;;;;;;5093104;28;20390;-54
2023/09/27 04:23:18;;;;;;;;;;;19.80;74.40;;;;;;5093037;28;19909;-55
2023/09/27 04:25:44;;;;;;;;;;;19.80;74.50;;;;;;5093679;28;19915;-54
2023/09/27 04:28:10;;;;;;;;;;;19.80;74.60;;;;;;5074934;28;19915;-55
2023/09/27 04:30:36;;;;;;;;;;;19.80;74.60;;;;;;5075013;28;19915;-55
2023/09/27 04:33:01;;;;;;;;;;;19.80;74.60;;;;;;5092801;28;19994;-54
2023/09/27 04:35:26;;;;;;;;;;;19.80;74.50;;;;;;5092903;28;19912;-55
2023/09/27 04:37:53;;;;;;;;;;;19.80;74.40;;;;;;5092779;28;19916;-55
2023/09/27 04:40:18;;;;;;;;;;;19.80;74.40;;;;;;5092772;28;20413;-55
2023/09/27 04:42:44;;;;;;;;;;;19.80;74.30;;;;;;5092804;28;19919;-55
2023/09/27 04:45:10;;;;;;;;;;;19.80;74.40;;;;;;5092745;28;19934;-54
2023/09/27 04:47:36;;;;;;;;;;;19.80;74.40;;;;;;5092934;28;20292;-54
2023/09/27 04:50:02;;;;;;;;;;;19.70;74.30;;;;;;5092686;28;19919;-55
2023/09/27 04:52:27;;;;;;;;;;;19.80;74.40;;;;;;5092569;28;19920;-55
2023/09/27 04:54:56;;;;;;;;;;;19.70;74.30;;;;;;5093394;28;19912;-55
2023/09/27 04:57:22;;;;;;;;;;;19.70;74.30;;;;;;5074785;28;19909;-55
2023/09/27 04:59:48;;;;;;;;;;;19.70;74.30;;;;;;5092726;28;19908;-54
2023/09/27 05:02:13;;;;;;;;;;;19.70;74.30;;;;;;5092479;28;19956;-55
2023/09/27 05:04:39;;;;;;;;;;;19.70;74.40;;;;;;5108225;28;19908;-55
2023/09/27 05:07:04;;;;;;;;;;;19.70;74.20;;;;;;5092479;28;19924;-55
2023/09/27 05:09:30;;;;;;;;;;;19.80;74.20;;;;;;5108141;28;19915;-55
2023/09/27 05:11:55;;;;;;;;;;;19.70;74.20;;;;;;5092615;28;19908;-55
2023/09/27 05:14:21;;;;;;;;;;;19.70;74.10;;;;;;5092366;28;19954;-54
2023/09/27 05:16:46;;;;;;;;;;;19.70;74.10;;;;;;5095177;28;19915;-54
2023/09/27 05:19:12;;;;;;;;;;;19.70;74.10;;;;;;5096244;28;19912;-54
2023/09/27 05:21:38;;;;;;;;;;;19.70;74.00;;;;;;5096405;28;19908;-54
2023/09/27 05:24:03;;;;;;;;;;;19.70;73.90;;;;;;5096262;28;19912;-54
2023/09/27 05:26:29;;;;;;;;;;;19.70;73.80;;;;;;5078991;28;20332;-55
2023/09/27 05:28:55;;;;;;;;;;;19.80;74.00;;;;;;5111866;28;20367;-55
2023/09/27 05:31:20;;;;;;;;;;;19.80;73.90;;;;;;5096020;28;20372;-55
2023/09/27 05:33:46;;;;;;;;;;;19.70;73.80;;;;;;5096100;28;19908;-55
2023/09/27 05:36:11;;;;;;;;;;;19.70;73.80;;;;;;5095997;28;19919;-54
2023/09/27 05:38:37;;;;;;;;;;;19.70;73.70;;;;;;5095989;28;19915;-55
2023/09/27 05:41:02;;;;;;;;;;;19.70;73.70;;;;;;5095906;28;19912;-55
2023/09/27 05:43:27;;;;;;;;;;;19.70;73.80;;;;;;5096120;28;20002;-55
2023/09/27 05:45:53;;;;;;;;;;;19.70;73.70;;;;;;5095854;28;19962;-55
2023/09/27 05:48:18;;;;;;;;;;;19.70;73.70;;;;;;5095961;28;20213;-55
2023/09/27 05:50:47;;;;;;;;;;;19.70;73.70;;;;;;5095611;28;19995;-55
2023/09/27 05:53:16;;;;;;;;;;;19.70;73.70;;;;;;5095771;28;20450;-55
2023/09/27 05:55:42;;;;;;;;;;;19.70;73.70;;;;;;5096246;28;19912;-55
2023/09/27 05:58:07;;;;;;;;;;;19.70;73.70;;;;;;5095711;28;20386;-55
2023/09/27 06:00:38;;;;;;;;;;;19.70;73.70;;;;;;5095652;28;19908;-55
2023/09/27 06:03:04;;;;;;;;;;;19.70;73.70;;;;;;5096174;28;19908;-54
2023/09/27 06:05:29;;;;;;;;;;;19.70;73.70;;;;;;5077473;28;19908;-54
2023/09/27 06:07:55;;;;;;;;;;;19.60;73.60;;;;;;5095494;28;19908;-54
2023/09/27 06:10:22;;;;;;;;;;;19.60;73.70;;;;;;5095417;28;20005;-55
2023/09/27 06:12:47;;;;;;;;;;;19.60;73.60;;;;;;5095376;28;19908;-53
2023/09/27 06:15:13;;;;;;;;;;;19.60;73.80;;;;;;5095095;28;20272;-55
2023/09/27 06:17:39;;;;;;;;;;;19.60;73.80;;;;;;5095242;28;19991;-54
2023/09/27 06:20:05;;;;;;;;;;;19.60;73.70;;;;;;5095114;28;19912;-55
2023/09/27 06:22:31;;;;;;;;;;;19.60;73.80;;;;;;5095361;28;19908;-55
2023/09/27 06:24:56;;;;;;;;;;;19.60;73.80;;;;;;5095705;28;20313;-54
2023/09/27 06:27:22;;;;;;;;;;;19.60;73.80;;;;;;5093825;28;19912;-55
2023/09/27 06:29:47;;;;;;;;;;;19.50;73.70;;;;;;5095255;28;20018;-55
2023/09/27 06:32:13;;;;;;;;;;;19.60;73.80;;;;;;5094994;28;19919;-55
2023/09/27 06:34:38;;;;;;;;;;;19.60;73.80;;;;;;5094971;28;19955;-55
2023/09/27 06:37:07;;;;;;;;;;;19.50;73.70;;;;;;5077091;28;19952;-54
2023/09/27 06:39:32;;;;;;;;;;;19.50;73.80;;;;;;5095182;28;19916;-55
2023/09/27 06:41:58;;;;;;;;;;;19.60;73.80;;;;;;5094861;28;20054;-55
2023/09/27 06:44:23;;;;;;;;;;;19.60;73.70;;;;;;5110569;28;20275;-54
2023/09/27 06:46:49;;;;;;;;;;;19.50;73.60;;;;;;5094965;28;19960;-54
2023/09/27 06:49:16;;;;;;;;;;;19.60;73.70;;;;;;5094735;28;19930;-55
2023/09/27 06:51:43;;;;;;;;;;;19.60;73.70;;;;;;5076526;28;19927;-54
2023/09/27 06:54:09;;;;;;;;;;;19.60;73.70;;;;;;5094600;28;20359;-55
2023/09/27 06:56:34;;;;;;;;;;;19.50;73.50;;;;;;5095216;28;19922;-54
2023/09/27 06:59:00;;;;;;;;;;;19.60;73.80;;;;;;5093073;28;20372;-55
2023/09/27 07:01:26;;;;;;;;;;;19.60;73.80;;;;;;5094414;28;19908;-55
2023/09/27 07:03:51;;;;;;;;;;;19.60;73.90;;;;;;5076298;28;19981;-55
2023/09/27 07:06:17;;;;;;;;;;;19.50;73.90;;;;;;5094247;28;20288;-55
2023/09/27 07:08:44;;;;;;;;;;;19.50;74.20;;;;;;5094337;28;19912;-54
2023/09/27 07:11:09;;;;;;;;;;;19.50;74.20;;;;;;5094090;28;19953;-55
2023/09/27 07:13:35;;;;;;;;;;;19.50;73.90;;;;;;5094295;28;19908;-55
2023/09/27 07:16:26;;;;;;;;;;;19.50;73.90;;;;;;5076160;28;19912;-55
2023/09/27 07:18:51;;;;;;;;;;;19.60;74.10;;;;;;5100820;28;19915;-55
2023/09/27 07:21:24;;;;;;;;;;;19.50;74.10;;;;;;5093894;28;20344;-54
2023/09/27 07:23:50;;;;;;;;;;;19.50;74.20;;;;;;5100700;28;19908;-54
2023/09/27 07:26:16;;;;;;;;;;;19.50;74.20;;;;;;5094611;28;20457;-55
2023/09/27 07:28:42;;;;;;;;;;;19.60;74.40;;;;;;5075824;28;19908;-54
2023/09/27 07:31:08;;;;;;;;;;;19.60;74.50;;;;;;5075860;28;19908;-55
2023/09/27 07:33:33;;;;;;;;;;;19.60;74.60;;;;;;5093712;28;20386;-54
2023/09/27 07:35:59;;;;;;;;;;;19.60;74.50;;;;;;5093577;28;19913;-55
2023/09/27 07:38:25;;;;;;;;;;;19.60;74.60;;;;;;5093432;28;19915;-54
2023/09/27 07:40:51;;;;;;;;;;;19.50;74.70;;;;;;5093778;28;19994;-55
2023/09/27 07:43:16;;;;;;;;;;;19.50;74.50;;;;;;5093528;28;19955;-54
2023/09/27 07:45:42;;;;;;;;;;;19.60;74.70;;;;;;5093633;28;20362;-55
2023/09/27 07:48:08;;;;;;;;;;;19.60;74.90;;;;;;5093415;28;19908;-55
2023/09/27 07:50:34;;;;;;;;;;;19.60;74.60;;;;;;5109041;28;19958;-55
2023/09/27 07:53:03;;;;;;;;;;;19.50;74.80;;;;;;5075668;28;20281;-55
2023/09/27 07:55:32;;;;;;;;;;;19.60;75.20;;;;;;5094095;28;20097;-54
2023/09/27 07:57:58;;;;;;;;;;;19.60;75.50;;;;;;5093514;28;19944;-54
2023/09/27 08:00:28;;;;;;;;;;;19.60;75.00;;;;;;5093328;28;20283;-55
2023/09/27 08:02:55;;;;;;;;;;;19.60;75.20;;;;;;5093183;28;19908;-55
2023/09/27 08:05:22;;;;;;;;;;;19.60;75.00;;;;;;5093257;28;19937;-55
2023/09/27 08:07:48;;;;;;;;;;;19.60;75.30;;;;;;5093280;28;20294;-55
2023/09/27 08:10:14;;;;;;;;;;;19.70;75.00;;;;;;5093143;28;20380;-55
2023/09/27 08:12:40;;;;;;;;;;;19.70;75.50;;;;;;5093258;28;19997;-55
2023/09/27 08:15:06;;;;;;;;;;;19.70;75.00;;;;;;5092951;28;20359;-53
2023/09/27 08:17:32;;;;;;;;;;;19.70;74.70;;;;;;5093440;28;19908;-55
2023/09/27 08:19:58;;;;;;;;;;;19.80;74.50;;;;;;5093236;28;20003;-55
2023/09/27 08:22:23;;;;;;;;;;;19.80;74.50;;;;;;5092982;28;19912;-55
2023/09/27 08:24:49;;;;;;;;;;;19.80;74.40;;;;;;5093619;28;19908;-55
2023/09/27 08:27:15;;;;;;;;;;;19.80;74.40;;;;;;5092967;28;19915;-55
2023/09/27 08:29:41;;;;;;;;;;;19.80;74.30;;;;;;5074770;28;20354;-55
2023/09/27 08:32:06;;;;;;;;;;;19.90;74.40;;;;;;5092731;28;19908;-55
2023/09/27 08:34:32;;;;;;;;;;;19.90;74.40;;;;;;5092841;28;19916;-55
2023/09/27 08:36:58;;;;;;;;;;;19.90;74.40;;;;;;5074687;28;19908;-54
2023/09/27 08:39:24;;;;;;;;;;;20.00;74.00;;;;;;5092791;28;20260;-55
2023/09/27 08:41:49;;;;;;;;;;;20.00;74.00;;;;;;5092690;28;19908;-55
2023/09/27 08:44:15;;;;;;;;;;;20.00;73.70;;;;;;5092689;28;19916;-55
2023/09/27 08:46:40;;;;;;;;;;;20.00;74.00;;;;;;5092829;28;19908;-55
2023/09/27 08:49:06;;;;;;;;;;;20.00;74.10;;;;;;5092655;28;19947;-55
2023/09/27 08:51:32;;;;;;;;;;;20.00;73.80;;;;;;5076665;28;20022;-55
2023/09/27 08:53:57;;;;;;;;;;;20.10;73.80;;;;;;5096702;28;19940;-55
2023/09/27 08:56:23;;;;;;;;;;;20.20;73.80;;;;;;5097362;28;20335;-54
2023/09/27 08:58:48;;;;;;;;;;;20.20;73.50;;;;;;5096619;28;19908;-56
2023/09/27 09:01:14;;;;;;;;;;;20.20;73.20;;;;;;5096722;28;19915;-54
2023/09/27 09:03:40;;;;;;;;;;;20.30;74.00;;;;;;5096732;28;19908;-56
2023/09/27 09:06:12;;;;;;;;;;;20.30;73.00;;;;;;5096567;28;19908;-54
2023/09/27 09:08:41;;;;;;;;;;;20.40;72.80;;;;;;5112223;28;19908;-54
2023/09/27 09:11:10;;;;;;;;;;;20.40;72.60;;;;;;5078183;28;19931;-56
2023/09/27 09:13:53;;;;;;;;;;;20.50;72.30;;;;;;5096329;28;20282;-57
2023/09/27 09:16:23;;;;;;;;;;;20.50;72.00;;;;;;5096291;28;19969;-56
2023/09/27 09:18:51;;;;;;;;;;;20.60;72.10;;;;;;5096315;28;19908;-56
2023/09/27 09:21:20;;;;;;;;;;;20.60;72.30;;;;;;5096315;28;19908;-55
2023/09/27 09:23:49;;;;;;;;;;;20.60;72.20;;;;;;5096289;28;19999;-56
2023/09/27 09:26:28;;;;;;;;;;;20.80;71.90;;;;;;5096900;28;19915;-56
2023/09/27 09:28:59;;;;;;;;;;;20.80;71.50;;;;;;5096106;28;19986;-56
2023/09/27 09:31:26;;;;;;;;;;;20.90;71.60;;;;;;5102997;28;20393;-54
2023/09/27 09:34:01;;;;;;;;;;;20.90;71.50;;;;;;5078087;28;19908;-56
2023/09/27 09:36:27;;;;;;;;;;;20.90;71.20;;;;;;5095918;28;20278;-56
2023/09/27 09:38:52;;;;;;;;;;;21.00;70.90;;;;;;5096097;28;19915;-56
2023/09/27 09:41:17;;;;;;;;;;;21.00;71.10;;;;;;5096013;28;20274;-55
2023/09/27 09:43:43;;;;;;;;;;;21.00;71.00;;;;;;5095906;28;20270;-56
2023/09/27 09:46:10;;;;;;;;;;;21.10;71.10;;;;;;5095857;28;20011;-56
2023/09/27 09:48:36;;;;;;;;;;;21.10;71.10;;;;;;5095960;28;19943;-56
2023/09/27 09:51:06;;;;;;;;;;;20.90;71.20;;;;;;5095600;28;19916;-53
2023/09/27 09:53:41;;;;;;;;;;;20.90;71.30;;;;;;5095982;28;19908;-54
2023/09/27 09:56:10;;;;;;;;;;;20.90;71.40;;;;;;5096107;28;19912;-54
2023/09/27 09:58:46;;;;;;;;;;;21.00;71.50;;;;;;5060646;28;20385;-56
2023/09/27 10:01:12;;;;;;;;;;;21.00;71.50;;;;;;5095449;28;19908;-56
2023/09/27 10:03:38;;;;;;;;;;;21.00;71.40;;;;;;5077414;28;20348;-55
2023/09/27 10:06:05;;;;;;;;;;;21.00;71.50;;;;;;5095362;28;19912;-54
2023/09/27 10:08:34;;;;;;;;;;;20.90;71.50;;;;;;5095483;28;19908;-56
2023/09/27 10:11:00;;;;;;;;;;;20.90;71.60;;;;;;5095458;28;19908;-56
2023/09/27 10:13:26;;;;;;;;;;;20.90;71.60;;;;;;5095440;28;19915;-56
2023/09/27 10:15:51;;;;;;;;;;;21.00;70.90;;;;;;5095282;28;20291;-56
2023/09/27 10:18:22;;;;;;;;;;;21.00;70.60;;;;;;5095211;28;20308;-56
2023/09/27 10:21:03;;;;;;;;;;;21.10;70.30;;;;;;5095163;28;19919;-54
2023/09/27 10:23:43;;;;;;;;;;;21.00;70.30;;;;;;5094977;28;19958;-54
2023/09/27 10:26:18;;;;;;;;;;;21.00;71.40;;;;;;5095525;28;19908;-55
2023/09/27 10:29:16;;;;;;;;;;;21.00;70.50;;;;;;5076833;28;19908;-53
2023/09/27 10:31:53;;;;;;;;;;;21.00;70.50;;;;;;5094966;28;19994;-54
2023/09/27 10:34:28;;;;;;;;;;;20.90;70.30;;;;;;5094925;28;19912;-54
2023/09/27 10:36:53;;;;;;;;;;;21.00;70.70;;;;;;5094810;28;20010;-54
2023/09/27 10:39:19;;;;;;;;;;;21.00;70.60;;;;;;5094695;28;19951;-54
2023/09/27 10:41:48;;;;;;;;;;;21.00;70.70;;;;;;5095077;28;19947;-55
2023/09/27 10:44:34;;;;;;;;;;;21.00;70.70;;;;;;5076641;28;19961;-55
2023/09/27 10:47:03;;;;;;;;;;;20.90;71.00;;;;;;5094006;28;19936;-53
2023/09/27 10:49:38;;;;;;;;;;;20.90;71.30;;;;;;5094552;28;20359;-55
2023/09/27 10:52:12;;;;;;;;;;;20.90;71.70;;;;;;5094294;28;19973;-54
2023/09/27 10:54:38;;;;;;;;;;;20.90;71.40;;;;;;5076992;28;19911;-54
2023/09/27 10:57:04;;;;;;;;;;;20.90;71.50;;;;;;5094432;28;19909;-55
2023/09/27 10:59:29;;;;;;;;;;;20.90;71.50;;;;;;5094372;28;19947;-54
2023/09/27 11:01:55;;;;;;;;;;;20.90;70.90;;;;;;5094561;28;19908;-55
2023/09/27 11:04:23;;;;;;;;;;;20.90;70.30;;;;;;5094285;28;20359;-54
2023/09/27 11:06:49;;;;;;;;;;;20.90;70.10;;;;;;5094254;28;19950;-54
2023/09/27 11:09:19;;;;;;;;;;;20.90;70.40;;;;;;5094256;28;20295;-54
2023/09/27 11:11:44;;;;;;;;;;;20.90;70.50;;;;;;5094139;28;19909;-54
2023/09/27 11:14:10;;;;;;;;;;;21.00;70.70;;;;;;5093426;28;19908;-55
2023/09/27 11:16:36;;;;;;;;;;;21.00;70.50;;;;;;5109673;28;20398;-55
2023/09/27 11:19:02;;;;;;;;;;;21.10;70.40;;;;;;5093945;28;19953;-54
2023/09/27 11:21:28;;;;;;;;;;;21.10;70.40;;;;;;5094162;28;19908;-54
2023/09/27 11:24:00;;;;;;;;;;;21.20;70.40;;;;;;5059019;28;20379;-55
2023/09/27 11:26:26;;;;;;;;;;;21.20;70.30;;;;;;5094559;28;19908;-55
2023/09/27 11:28:58;;;;;;;;;;;21.30;70.20;;;;;;5093953;28;19987;-55
2023/09/27 11:31:25;;;;;;;;;;;21.40;69.70;;;;;;5094120;28;19908;-54
2023/09/27 11:33:50;;;;;;;;;;;21.40;69.80;;;;;;5093781;28;20003;-54
2023/09/27 11:36:16;;;;;;;;;;;21.50;69.60;;;;;;5093780;28;20343;-53
2023/09/27 11:38:49;;;;;;;;;;;21.50;69.10;;;;;;5093662;28;19915;-54
2023/09/27 11:41:16;;;;;;;;;;;21.50;69.40;;;;;;5093886;28;19914;-54
2023/09/27 11:43:43;;;;;;;;;;;21.50;69.30;;;;;;5093662;28;19908;-55
2023/09/27 11:46:08;;;;;;;;;;;21.60;68.60;;;;;;5093671;28;19950;-55
2023/09/27 11:48:34;;;;;;;;;;;21.60;68.40;;;;;;5075526;28;19912;-55
2023/09/27 11:51:00;;;;;;;;;;;21.60;68.70;;;;;;5093206;28;19917;-55
2023/09/27 11:53:26;;;;;;;;;;;21.60;68.40;;;;;;5075443;28;19919;-54
2023/09/27 11:55:51;;;;;;;;;;;21.60;68.40;;;;;;5092151;28;20291;-54
2023/09/27 11:58:17;;;;;;;;;;;21.60;69.10;;;;;;5093364;28;19908;-54
2023/09/27 12:00:42;;;;;;;;;;;21.50;69.10;;;;;;5075272;28;19919;-54
2023/09/27 12:03:10;;;;;;;;;;;21.60;69.20;;;;;;5093134;28;19919;-53
2023/09/27 12:05:38;;;;;;;;;;;21.50;69.20;;;;;;5093324;28;20287;-53
2023/09/27 12:08:04;;;;;;;;;;;21.50;69.20;;;;;;5093273;28;20025;-56
2023/09/27 12:10:30;;;;;;;;;;;21.50;69.30;;;;;;5093183;28;19907;-53
2023/09/27 12:12:56;;;;;;;;;;;21.40;69.70;;;;;;5093084;28;20339;-54
2023/09/27 12:15:22;;;;;;;;;;;21.40;70.00;;;;;;5092982;28;19912;-54
2023/09/27 12:17:47;;;;;;;;;;;21.50;69.40;;;;;;5093141;28;19947;-57
2023/09/27 12:20:16;;;;;;;;;;;21.60;69.30;;;;;;5108701;28;19966;-57
2023/09/27 12:22:42;;;;;;;;;;;21.60;69.00;;;;;;5093145;28;19934;-53
2023/09/27 12:25:07;;;;;;;;;;;21.70;69.10;;;;;;5092849;28;20390;-54
2023/09/27 12:27:33;;;;;;;;;;;21.60;69.30;;;;;;5092749;28;19912;-53
2023/09/27 12:29:59;;;;;;;;;;;21.70;69.40;;;;;;5092976;28;20432;-54
2023/09/27 12:32:25;;;;;;;;;;;21.70;69.10;;;;;;5092889;28;19960;-54
2023/09/27 12:34:51;;;;;;;;;;;21.80;68.80;;;;;;5092966;28;19966;-55
2023/09/27 12:37:16;;;;;;;;;;;21.90;68.40;;;;;;5092862;28;19943;-54
2023/09/27 12:39:42;;;;;;;;;;;21.90;68.40;;;;;;5092902;28;19955;-55
2023/09/27 12:42:07;;;;;;;;;;;22.00;68.50;;;;;;5092716;28;19909;-55
2023/09/27 12:44:33;;;;;;;;;;;21.90;68.40;;;;;;5092836;28;19912;-55
2023/09/27 12:46:58;;;;;;;;;;;21.90;68.40;;;;;;5092879;28;19908;-55
2023/09/27 12:49:25;;;;;;;;;;;21.80;69.00;;;;;;5092642;28;19953;-54
2023/09/27 12:51:53;;;;;;;;;;;21.60;69.50;;;;;;5092761;28;20366;-54
2023/09/27 12:54:19;;;;;;;;;;;21.60;69.80;;;;;;5093005;28;19915;-54
2023/09/27 12:56:45;;;;;;;;;;;21.60;69.90;;;;;;5092677;28;19960;-54
2023/09/27 12:59:10;;;;;;;;;;;21.60;70.00;;;;;;5092653;28;19962;-54
2023/09/27 13:01:36;;;;;;;;;;;21.70;69.60;;;;;;5108191;28;19908;-55
2023/09/27 13:04:01;;;;;;;;;;;22.00;68.60;;;;;;5092522;28;19909;-55
2023/09/27 13:06:27;;;;;;;;;;;22.10;68.50;;;;;;5092711;28;19908;-55
2023/09/27 13:08:52;;;;;;;;;;;22.00;68.60;;;;;;5092662;28;20174;-54
2023/09/27 13:11:18;;;;;;;;;;;21.90;68.90;;;;;;5092508;28;19908;-55
2023/09/27 13:13:43;;;;;;;;;;;21.80;68.70;;;;;;5092564;28;19912;-54
2023/09/27 13:16:09;;;;;;;;;;;21.80;69.30;;;;;;5092440;28;20384;-55
2023/09/27 13:18:34;;;;;;;;;;;21.70;69.60;;;;;;5108365;28;19920;-55
2023/09/27 13:21:00;;;;;;;;;;;21.70;69.50;;;;;;5092549;28;19919;-54
2023/09/27 13:23:26;;;;;;;;;;;21.70;69.50;;;;;;5092620;28;19908;-55
2023/09/27 13:25:52;;;;;;;;;;;21.60;69.90;;;;;;5093173;28;19908;-54
2023/09/27 13:28:17;;;;;;;;;;;21.50;70.20;;;;;;5074359;28;19998;-55
2023/09/27 13:30:43;;;;;;;;;;;21.60;70.00;;;;;;5092494;28;20005;-54
2023/09/27 13:33:09;;;;;;;;;;;21.70;69.50;;;;;;5092398;28;19915;-55
2023/09/27 13:35:34;;;;;;;;;;;21.80;69.30;;;;;;5108134;28;19916;-55
2023/09/27 13:38:03;;;;;;;;;;;21.70;69.50;;;;;;5095054;28;20333;-54
2023/09/27 13:40:29;;;;;;;;;;;21.60;69.90;;;;;;5077810;28;19912;-55
2023/09/27 13:42:54;;;;;;;;;;;21.60;70.00;;;;;;5096286;28;20298;-54
2023/09/27 13:45:20;;;;;;;;;;;21.60;69.90;;;;;;5096026;28;20766;-55
2023/09/27 13:47:46;;;;;;;;;;;21.80;69.20;;;;;;5111689;28;19908;-55
2023/09/27 13:50:12;;;;;;;;;;;21.80;69.10;;;;;;5096059;28;19937;-55
2023/09/27 13:52:37;;;;;;;;;;;21.90;69.00;;;;;;5095794;28;19920;-55
2023/09/27 13:55:03;;;;;;;;;;;21.80;69.30;;;;;;5096379;28;19923;-54
2023/09/27 13:57:30;;;;;;;;;;;21.90;68.40;;;;;;5095695;28;19947;-55
2023/09/27 13:59:55;;;;;;;;;;;21.90;68.40;;;;;;5095699;28;20336;-55
2023/09/27 14:02:21;;;;;;;;;;;21.90;68.40;;;;;;5095690;28;19912;-54
2023/09/27 14:04:46;;;;;;;;;;;21.80;68.80;;;;;;5095799;28;19908;-55
2023/09/27 14:07:12;;;;;;;;;;;21.80;69.00;;;;;;5095697;28;19931;-55
2023/09/27 14:09:37;;;;;;;;;;;21.80;68.90;;;;;;5095645;28;19908;-54
2023/09/27 14:12:03;;;;;;;;;;;21.80;69.10;;;;;;5077513;28;19912;-54